sensor_id;sensor_type;location;lat;lon;timestamp;temperature;humidity
20911;DHT22;10615;42.702;23.314;2023-09-12T00:00:53;18.00;64.80
20911;DHT22;10615;42.702;23.314;2023-09-12T00:01:53;18.00;64.90
20911;DHT22;10615;42.702;23.314;2023-09-12T00:02:55;17.90;64.90
20911;DHT22;10615;42.702;23.314;2023-09-12T00:03:55;17.90;65.00
20911;DHT22;10615;42.702;23.314;2023-09-12T00:04:56;17.90;65.10
20911;DHT22;10615;42.702;23.314;2023-09-12T00:05:59;17.90;65.20
20911;DHT22;10615;42.702;23.314;2023-09-12T00:07:00;17.90;65.20
20911;DHT22;10615;42.702;23.314;2023-09-12T00:08:00;17.80;65.30
20911;DHT22;10615;42.702;23.314;2023-09-12T00:09:01;17.80;65.30
20911;DHT22;10615;42.702;23.314;2023-09-12T00:10:06;17.90;65.50
20911;DHT22;10615;42.702;23.314;2023-09-12T00:11:08;17.80;65.50
20911;DHT22;10615;42.702;23.314;2023-09-12T00:12:14;17.80;65.60
20911;DHT22;10615;42.702;23.314;2023-09-12T00:13:15;17.80;65.70
20911;DHT22;10615;42.702;23.314;2023-09-12T00:14:16;17.80;65.90
20911;DHT22;10615;42.702;23.314;2023-09-12T00:15:17;17.70;65.90
20911;DHT22;10615;42.702;23.314;2023-09-12T00:16:20;17.70;65.90
20911;DHT22;10615;42.702;23.314;2023-09-12T00:17:20;17.70;66.00
20911;DHT22;10615;42.702;23.314;2023-09-12T00:18:21;17.70;66.10
20911;DHT22;10615;42.702;23.314;2023-09-12T00:19:22;17.70;66.20
20911;DHT22;10615;42.702;23.314;2023-09-12T00:20:22;17.70;66.20
20911;DHT22;10615;42.702;23.314;2023-09-12T00:21:23;17.70;66.20
20911;DHT22;10615;42.702;23.314;2023-09-12T00:22:24;17.70;66.20
20911;DHT22;10615;42.702;23.314;2023-09-12T00:23:24;17.70;67.20
20911;DHT22;10615;42.702;23.314;2023-09-12T00:24:25;17.60;66.40
20911;DHT22;10615;42.702;23.314;2023-09-12T00:25:25;17.60;66.50
20911;DHT22;10615;42.702;23.314;2023-09-12T00:26:26;17.60;66.60
20911;DHT22;10615;42.702;23.314;2023-09-12T00:27:27;17.60;66.60
20911;DHT22;10615;42.702;23.314;2023-09-12T00:28:28;17.60;66.80
20911;DHT22;10615;42.702;23.314;2023-09-12T00:29:29;17.60;66.80
20911;DHT22;10615;42.702;23.314;2023-09-12T00:30:30;17.60;66.80
20911;DHT22;10615;42.702;23.314;2023-09-12T00:31:30;17.60;66.80
20911;DHT22;10615;42.702;23.314;2023-09-12T00:32:31;17.60;66.90
20911;DHT22;10615;42.702;23.314;2023-09-12T00:33:31;17.60;66.90
20911;DHT22;10615;42.702;23.314;2023-09-12T00:34:32;17.60;66.90
20911;DHT22;10615;42.702;23.314;2023-09-12T00:35:33;17.60;66.90
20911;DHT22;10615;42.702;23.314;2023-09-12T00:36:33;17.60;67.10
20911;DHT22;10615;42.702;23.314;2023-09-12T00:37:34;17.50;67.20
20911;DHT22;10615;42.702;23.314;2023-09-12T00:38:34;17.50;67.20
20911;DHT22;10615;42.702;23.314;2023-09-12T00:39:35;17.50;67.20
20911;DHT22;10615;42.702;23.314;2023-09-12T00:40:36;17.50;67.40
20911;DHT22;10615;42.702;23.314;2023-09-12T00:41:37;17.50;67.50
20911;DHT22;10615;42.702;23.314;2023-09-12T00:42:38;17.50;67.50
20911;DHT22;10615;42.702;23.314;2023-09-12T00:43:39;17.40;67.40
20911;DHT22;10615;42.702;23.314;2023-09-12T00:44:39;17.50;67.50
20911;DHT22;10615;42.702;23.314;2023-09-12T00:45:41;17.40;67.40
20911;DHT22;10615;42.702;23.314;2023-09-12T00:46:42;17.50;67.50
20911;DHT22;10615;42.702;23.314;2023-09-12T00:47:45;17.40;67.50
20911;DHT22;10615;42.702;23.314;2023-09-12T00:48:46;17.40;67.60
20911;DHT22;10615;42.702;23.314;2023-09-12T00:49:49;17.40;67.70
20911;DHT22;10615;42.702;23.314;2023-09-12T00:50:51;17.30;67.80
20911;DHT22;10615;42.702;23.314;2023-09-12T00:51:54;17.30;67.90
20911;DHT22;10615;42.702;23.314;2023-09-12T00:52:56;17.30;67.90
20911;DHT22;10615;42.702;23.314;2023-09-12T00:53:57;17.30;67.90
20911;DHT22;10615;42.702;23.314;2023-09-12T00:54:58;17.30;68.10
20911;DHT22;10615;42.702;23.314;2023-09-12T00:55:59;17.20;68.10
20911;DHT22;10615;42.702;23.314;2023-09-12T00:57:00;17.20;68.20
20911;DHT22;10615;42.702;23.314;2023-09-12T00:58:01;17.20;68.30
20911;DHT22;10615;42.702;23.314;2023-09-12T00:59:03;17.20;68.30
20911;DHT22;10615;42.702;23.314;2023-09-12T01:00:05;17.10;68.40
20911;DHT22;10615;42.702;23.314;2023-09-12T01:01:11;17.10;68.50
20911;DHT22;10615;42.702;23.314;2023-09-12T01:02:12;17.10;68.70
20911;DHT22;10615;42.702;23.314;2023-09-12T01:03:13;17.10;68.60
20911;DHT22;10615;42.702;23.314;2023-09-12T01:04:14;17.10;68.70
20911;DHT22;10615;42.702;23.314;2023-09-12T01:05:15;17.10;68.80
20911;DHT22;10615;42.702;23.314;2023-09-12T01:06:19;17.10;68.80
20911;DHT22;10615;42.702;23.314;2023-09-12T01:07:21;17.10;68.90
20911;DHT22;10615;42.702;23.314;2023-09-12T01:08:21;17.10;68.90
20911;DHT22;10615;42.702;23.314;2023-09-12T01:09:22;17.00;68.90
20911;DHT22;10615;42.702;23.314;2023-09-12T01:10:23;17.00;68.90
20911;DHT22;10615;42.702;23.314;2023-09-12T01:11:24;17.00;69.00
20911;DHT22;10615;42.702;23.314;2023-09-12T01:12:25;17.00;69.00
20911;DHT22;10615;42.702;23.314;2023-09-12T01:13:26;17.00;69.00
20911;DHT22;10615;42.702;23.314;2023-09-12T01:14:27;17.00;69.10
20911;DHT22;10615;42.702;23.314;2023-09-12T01:15:28;17.00;69.10
20911;DHT22;10615;42.702;23.314;2023-09-12T01:16:28;17.00;69.10
20911;DHT22;10615;42.702;23.314;2023-09-12T01:17:29;17.00;69.10
20911;DHT22;10615;42.702;23.314;2023-09-12T01:18:30;17.00;69.10
20911;DHT22;10615;42.702;23.314;2023-09-12T01:19:32;17.00;69.10
20911;DHT22;10615;42.702;23.314;2023-09-12T01:20:35;17.00;69.10
20911;DHT22;10615;42.702;23.314;2023-09-12T01:23:11;17.00;69.10
20911;DHT22;10615;42.702;23.314;2023-09-12T01:28:15;17.00;69.00
20911;DHT22;10615;42.702;23.314;2023-09-12T01:29:18;17.00;69.10
20911;DHT22;10615;42.702;23.314;2023-09-12T01:30:22;16.90;69.20
20911;DHT22;10615;42.702;23.314;2023-09-12T01:31:24;16.90;69.30
20911;DHT22;10615;42.702;23.314;2023-09-12T01:32:25;16.90;69.40
20911;DHT22;10615;42.702;23.314;2023-09-12T01:33:26;16.90;69.40
20911;DHT22;10615;42.702;23.314;2023-09-12T01:34:27;16.90;69.40
20911;DHT22;10615;42.702;23.314;2023-09-12T01:35:28;16.90;69.50
20911;DHT22;10615;42.702;23.314;2023-09-12T01:36:28;16.90;69.40
20911;DHT22;10615;42.702;23.314;2023-09-12T01:37:33;16.90;69.30
20911;DHT22;10615;42.702;23.314;2023-09-12T01:38:33;16.90;69.30
20911;DHT22;10615;42.702;23.314;2023-09-12T01:39:34;16.90;69.30
20911;DHT22;10615;42.702;23.314;2023-09-12T01:41:43;16.90;69.40
20911;DHT22;10615;42.702;23.314;2023-09-12T01:42:47;16.80;69.30
20911;DHT22;10615;42.702;23.314;2023-09-12T01:43:50;16.80;69.50
20911;DHT22;10615;42.702;23.314;2023-09-12T01:44:55;16.70;69.50
20911;DHT22;10615;42.702;23.314;2023-09-12T01:45:59;16.70;69.70
20911;DHT22;10615;42.702;23.314;2023-09-12T01:47:03;16.60;69.90
20911;DHT22;10615;42.702;23.314;2023-09-12T01:48:06;16.60;70.20
20911;DHT22;10615;42.702;23.314;2023-09-12T01:49:09;16.60;70.20
20911;DHT22;10615;42.702;23.314;2023-09-12T01:50:10;16.60;70.20
20911;DHT22;10615;42.702;23.314;2023-09-12T01:51:14;16.60;70.20
20911;DHT22;10615;42.702;23.314;2023-09-12T01:52:15;16.60;70.10
20911;DHT22;10615;42.702;23.314;2023-09-12T01:53:17;16.50;70.20
20911;DHT22;10615;42.702;23.314;2023-09-12T01:54:19;16.50;70.40
20911;DHT22;10615;42.702;23.314;2023-09-12T01:55:20;16.50;70.60
20911;DHT22;10615;42.702;23.314;2023-09-12T01:56:22;16.50;70.70
20911;DHT22;10615;42.702;23.314;2023-09-12T01:57:24;16.50;70.80
20911;DHT22;10615;42.702;23.314;2023-09-12T01:58:26;16.50;70.80
20911;DHT22;10615;42.702;23.314;2023-09-12T01:59:28;16.50;71.00
20911;DHT22;10615;42.702;23.314;2023-09-12T02:00:30;16.40;70.90
20911;DHT22;10615;42.702;23.314;2023-09-12T02:01:31;16.40;70.80
20911;DHT22;10615;42.702;23.314;2023-09-12T02:02:32;16.40;70.90
20911;DHT22;10615;42.702;23.314;2023-09-12T02:03:32;16.40;70.90
20911;DHT22;10615;42.702;23.314;2023-09-12T02:04:33;16.40;70.90
20911;DHT22;10615;42.702;23.314;2023-09-12T02:05:34;16.40;70.90
20911;DHT22;10615;42.702;23.314;2023-09-12T02:06:35;16.30;71.00
20911;DHT22;10615;42.702;23.314;2023-09-12T02:07:38;16.30;71.00
20911;DHT22;10615;42.702;23.314;2023-09-12T02:08:39;16.30;71.30
20911;DHT22;10615;42.702;23.314;2023-09-12T02:09:39;16.30;71.30
20911;DHT22;10615;42.702;23.314;2023-09-12T02:10:40;16.30;71.40
20911;DHT22;10615;42.702;23.314;2023-09-12T02:11:41;16.20;71.30
20911;DHT22;10615;42.702;23.314;2023-09-12T02:12:41;16.30;71.40
20911;DHT22;10615;42.702;23.314;2023-09-12T02:13:42;16.30;71.40
20911;DHT22;10615;42.702;23.314;2023-09-12T02:14:43;16.20;71.40
20911;DHT22;10615;42.702;23.314;2023-09-12T02:15:43;16.30;71.40
20911;DHT22;10615;42.702;23.314;2023-09-12T02:16:44;16.30;71.40
20911;DHT22;10615;42.702;23.314;2023-09-12T02:17:45;16.30;71.50
20911;DHT22;10615;42.702;23.314;2023-09-12T02:18:46;16.30;71.50
20911;DHT22;10615;42.702;23.314;2023-09-12T02:19:49;16.30;71.50
20911;DHT22;10615;42.702;23.314;2023-09-12T02:20:50;16.30;71.40
20911;DHT22;10615;42.702;23.314;2023-09-12T02:21:51;16.30;71.40
20911;DHT22;10615;42.702;23.314;2023-09-12T02:22:51;16.30;72.30
20911;DHT22;10615;42.702;23.314;2023-09-12T02:23:52;16.30;71.50
20911;DHT22;10615;42.702;23.314;2023-09-12T02:24:52;16.30;71.60
20911;DHT22;10615;42.702;23.314;2023-09-12T02:25:53;16.30;71.60
20911;DHT22;10615;42.702;23.314;2023-09-12T02:26:54;16.30;71.80
20911;DHT22;10615;42.702;23.314;2023-09-12T02:27:54;16.30;71.80
20911;DHT22;10615;42.702;23.314;2023-09-12T02:28:55;16.20;71.80
20911;DHT22;10615;42.702;23.314;2023-09-12T02:29:55;16.20;71.80
20911;DHT22;10615;42.702;23.314;2023-09-12T02:30:56;16.20;72.10
20911;DHT22;10615;42.702;23.314;2023-09-12T02:31:57;16.20;72.20
20911;DHT22;10615;42.702;23.314;2023-09-12T02:32:57;16.20;72.30
20911;DHT22;10615;42.702;23.314;2023-09-12T02:33:58;16.20;72.30
20911;DHT22;10615;42.702;23.314;2023-09-12T02:34:58;16.20;72.20
20911;DHT22;10615;42.702;23.314;2023-09-12T02:35:59;16.20;72.20
20911;DHT22;10615;42.702;23.314;2023-09-12T02:37:00;16.20;72.20
20911;DHT22;10615;42.702;23.314;2023-09-12T02:38:01;16.20;72.10
20911;DHT22;10615;42.702;23.314;2023-09-12T02:39:02;16.20;72.10
20911;DHT22;10615;42.702;23.314;2023-09-12T02:40:05;16.20;72.10
20911;DHT22;10615;42.702;23.314;2023-09-12T02:41:06;16.20;72.10
20911;DHT22;10615;42.702;23.314;2023-09-12T02:42:07;16.30;72.10
20911;DHT22;10615;42.702;23.314;2023-09-12T02:43:08;16.30;72.20
20911;DHT22;10615;42.702;23.314;2023-09-12T02:44:09;16.30;73.10
20911;DHT22;10615;42.702;23.314;2023-09-12T02:45:09;16.30;72.10
20911;DHT22;10615;42.702;23.314;2023-09-12T02:46:10;16.30;72.10
20911;DHT22;10615;42.702;23.314;2023-09-12T02:47:11;16.30;72.10
20911;DHT22;10615;42.702;23.314;2023-09-12T02:48:11;16.30;72.20
20911;DHT22;10615;42.702;23.314;2023-09-12T02:49:12;16.20;72.30
20911;DHT22;10615;42.702;23.314;2023-09-12T02:50:13;16.20;72.20
20911;DHT22;10615;42.702;23.314;2023-09-12T02:51:13;16.30;72.30
20911;DHT22;10615;42.702;23.314;2023-09-12T02:52:14;16.30;72.40
20911;DHT22;10615;42.702;23.314;2023-09-12T02:53:15;16.30;72.40
20911;DHT22;10615;42.702;23.314;2023-09-12T02:54:15;16.30;72.40
20911;DHT22;10615;42.702;23.314;2023-09-12T02:55:16;16.20;72.40
20911;DHT22;10615;42.702;23.314;2023-09-12T02:56:17;16.20;72.50
20911;DHT22;10615;42.702;23.314;2023-09-12T02:57:17;16.20;72.50
20911;DHT22;10615;42.702;23.314;2023-09-12T02:58:18;16.20;74.40
20911;DHT22;10615;42.702;23.314;2023-09-12T02:59:18;16.20;72.70
20911;DHT22;10615;42.702;23.314;2023-09-12T03:00:19;16.10;72.70
20911;DHT22;10615;42.702;23.314;2023-09-12T03:01:20;16.10;73.00
20911;DHT22;10615;42.702;23.314;2023-09-12T03:02:21;16.10;73.00
20911;DHT22;10615;42.702;23.314;2023-09-12T03:03:22;16.10;73.00
20911;DHT22;10615;42.702;23.314;2023-09-12T03:04:25;16.10;73.00
20911;DHT22;10615;42.702;23.314;2023-09-12T03:05:26;16.10;73.00
20911;DHT22;10615;42.702;23.314;2023-09-12T03:06:28;16.10;73.20
20911;DHT22;10615;42.702;23.314;2023-09-12T03:07:29;16.10;73.20
20911;DHT22;10615;42.702;23.314;2023-09-12T03:08:30;16.10;73.20
20911;DHT22;10615;42.702;23.314;2023-09-12T03:09:31;16.10;73.10
20911;DHT22;10615;42.702;23.314;2023-09-12T03:10:32;16.00;73.10
20911;DHT22;10615;42.702;23.314;2023-09-12T03:11:32;16.00;73.20
20911;DHT22;10615;42.702;23.314;2023-09-12T03:12:35;16.00;73.40
20911;DHT22;10615;42.702;23.314;2023-09-12T03:13:40;16.00;73.30
20911;DHT22;10615;42.702;23.314;2023-09-12T03:14:40;16.00;73.30
20911;DHT22;10615;42.702;23.314;2023-09-12T03:15:41;16.00;73.30
20911;DHT22;10615;42.702;23.314;2023-09-12T03:16:42;16.00;73.40
20911;DHT22;10615;42.702;23.314;2023-09-12T03:17:42;16.00;73.40
20911;DHT22;10615;42.702;23.314;2023-09-12T03:18:43;16.00;73.40
20911;DHT22;10615;42.702;23.314;2023-09-12T03:19:44;16.00;73.40
20911;DHT22;10615;42.702;23.314;2023-09-12T03:20:44;16.00;73.30
20911;DHT22;10615;42.702;23.314;2023-09-12T03:21:45;16.00;73.40
20911;DHT22;10615;42.702;23.314;2023-09-12T03:22:46;16.00;73.50
20911;DHT22;10615;42.702;23.314;2023-09-12T03:23:46;16.00;73.60
20911;DHT22;10615;42.702;23.314;2023-09-12T03:24:47;16.00;73.60
20911;DHT22;10615;42.702;23.314;2023-09-12T03:25:48;16.00;73.50
20911;DHT22;10615;42.702;23.314;2023-09-12T03:26:48;16.00;73.50
20911;DHT22;10615;42.702;23.314;2023-09-12T03:27:49;16.00;73.60
20911;DHT22;10615;42.702;23.314;2023-09-12T03:28:50;16.00;73.70
20911;DHT22;10615;42.702;23.314;2023-09-12T03:29:51;16.00;73.70
20911;DHT22;10615;42.702;23.314;2023-09-12T03:30:52;16.00;73.70
20911;DHT22;10615;42.702;23.314;2023-09-12T03:31:52;16.00;73.60
20911;DHT22;10615;42.702;23.314;2023-09-12T03:32:53;16.00;73.60
20911;DHT22;10615;42.702;23.314;2023-09-12T03:33:54;16.10;73.50
20911;DHT22;10615;42.702;23.314;2023-09-12T03:34:54;16.00;73.50
20911;DHT22;10615;42.702;23.314;2023-09-12T03:35:55;16.00;73.70
20911;DHT22;10615;42.702;23.314;2023-09-12T03:36:55;16.00;73.80
20911;DHT22;10615;42.702;23.314;2023-09-12T03:37:56;16.00;73.90
20911;DHT22;10615;42.702;23.314;2023-09-12T03:38:57;16.00;73.80
20911;DHT22;10615;42.702;23.314;2023-09-12T03:39:57;15.90;74.00
20911;DHT22;10615;42.702;23.314;2023-09-12T03:40:58;15.90;74.10
20911;DHT22;10615;42.702;23.314;2023-09-12T03:41:58;15.90;74.20
20911;DHT22;10615;42.702;23.314;2023-09-12T03:42:59;15.90;74.30
20911;DHT22;10615;42.702;23.314;2023-09-12T03:44:00;15.90;74.30
20911;DHT22;10615;42.702;23.314;2023-09-12T03:45:00;15.90;74.30
20911;DHT22;10615;42.702;23.314;2023-09-12T03:46:01;15.80;74.20
20911;DHT22;10615;42.702;23.314;2023-09-12T03:47:02;15.80;74.40
20911;DHT22;10615;42.702;23.314;2023-09-12T03:48:03;15.80;74.60
20911;DHT22;10615;42.702;23.314;2023-09-12T03:49:04;15.80;74.60
20911;DHT22;10615;42.702;23.314;2023-09-12T03:50:05;15.80;74.60
20911;DHT22;10615;42.702;23.314;2023-09-12T03:51:06;15.80;74.50
20911;DHT22;10615;42.702;23.314;2023-09-12T03:52:06;15.80;74.60
20911;DHT22;10615;42.702;23.314;2023-09-12T03:53:07;15.80;74.60
20911;DHT22;10615;42.702;23.314;2023-09-12T03:54:08;15.80;74.60
20911;DHT22;10615;42.702;23.314;2023-09-12T03:55:09;15.80;74.60
20911;DHT22;10615;42.702;23.314;2023-09-12T03:56:10;15.80;74.60
20911;DHT22;10615;42.702;23.314;2023-09-12T03:57:12;15.80;74.60
20911;DHT22;10615;42.702;23.314;2023-09-12T03:58:13;15.80;74.70
20911;DHT22;10615;42.702;23.314;2023-09-12T03:59:14;15.80;74.70
20911;DHT22;10615;42.702;23.314;2023-09-12T04:00:15;15.70;74.70
20911;DHT22;10615;42.702;23.314;2023-09-12T04:01:15;15.80;74.70
20911;DHT22;10615;42.702;23.314;2023-09-12T04:02:16;15.70;74.70
20911;DHT22;10615;42.702;23.314;2023-09-12T04:03:17;15.70;74.70
20911;DHT22;10615;42.702;23.314;2023-09-12T04:04:17;15.70;74.70
20911;DHT22;10615;42.702;23.314;2023-09-12T04:05:18;15.70;74.70
20911;DHT22;10615;42.702;23.314;2023-09-12T04:06:18;15.70;74.80
20911;DHT22;10615;42.702;23.314;2023-09-12T04:07:19;15.70;74.90
20911;DHT22;10615;42.702;23.314;2023-09-12T04:08:20;15.70;74.90
20911;DHT22;10615;42.702;23.314;2023-09-12T04:09:21;15.70;74.80
20911;DHT22;10615;42.702;23.314;2023-09-12T04:10:21;15.70;74.90
20911;DHT22;10615;42.702;23.314;2023-09-12T04:11:22;15.70;74.70
20911;DHT22;10615;42.702;23.314;2023-09-12T04:12:23;15.70;74.70
20911;DHT22;10615;42.702;23.314;2023-09-12T04:13:23;15.80;74.70
20911;DHT22;10615;42.702;23.314;2023-09-12T04:14:24;15.80;74.60
20911;DHT22;10615;42.702;23.314;2023-09-12T04:15:24;15.90;74.60
20911;DHT22;10615;42.702;23.314;2023-09-12T04:16:25;16.00;74.50
20911;DHT22;10615;42.702;23.314;2023-09-12T04:17:26;16.00;74.20
20911;DHT22;10615;42.702;23.314;2023-09-12T04:18:26;16.10;73.90
20911;DHT22;10615;42.702;23.314;2023-09-12T04:19:27;16.20;73.70
20911;DHT22;10615;42.702;23.314;2023-09-12T04:20:28;16.30;73.60
20911;DHT22;10615;42.702;23.314;2023-09-12T04:21:28;16.40;74.10
20911;DHT22;10615;42.702;23.314;2023-09-12T04:22:29;16.50;73.00
20911;DHT22;10615;42.702;23.314;2023-09-12T04:23:30;16.60;72.60
20911;DHT22;10615;42.702;23.314;2023-09-12T04:24:30;16.70;72.40
20911;DHT22;10615;42.702;23.314;2023-09-12T04:25:31;16.80;72.10
20911;DHT22;10615;42.702;23.314;2023-09-12T04:26:31;16.90;71.80
20911;DHT22;10615;42.702;23.314;2023-09-12T04:27:32;17.00;71.40
20911;DHT22;10615;42.702;23.314;2023-09-12T04:28:34;17.20;71.10
20911;DHT22;10615;42.702;23.314;2023-09-12T04:29:35;17.30;70.60
20911;DHT22;10615;42.702;23.314;2023-09-12T04:30:35;17.40;70.30
20911;DHT22;10615;42.702;23.314;2023-09-12T04:31:36;17.50;70.70
20911;DHT22;10615;42.702;23.314;2023-09-12T04:32:37;17.70;69.40
20911;DHT22;10615;42.702;23.314;2023-09-12T04:33:37;17.70;68.90
20911;DHT22;10615;42.702;23.314;2023-09-12T04:34:38;17.90;68.50
20911;DHT22;10615;42.702;23.314;2023-09-12T04:35:39;17.90;68.00
20911;DHT22;10615;42.702;23.314;2023-09-12T04:36:39;18.00;67.80
20911;DHT22;10615;42.702;23.314;2023-09-12T04:37:40;18.10;67.50
20911;DHT22;10615;42.702;23.314;2023-09-12T04:38:41;18.20;67.10
20911;DHT22;10615;42.702;23.314;2023-09-12T04:39:41;18.30;67.00
20911;DHT22;10615;42.702;23.314;2023-09-12T04:40:42;18.40;66.50
20911;DHT22;10615;42.702;23.314;2023-09-12T04:41:42;18.50;66.20
20911;DHT22;10615;42.702;23.314;2023-09-12T04:42:43;18.60;65.90
20911;DHT22;10615;42.702;23.314;2023-09-12T04:43:44;18.70;65.50
20911;DHT22;10615;42.702;23.314;2023-09-12T04:44:45;18.90;65.30
20911;DHT22;10615;42.702;23.314;2023-09-12T04:45:45;19.00;64.80
20911;DHT22;10615;42.702;23.314;2023-09-12T04:46:46;19.10;64.30
20911;DHT22;10615;42.702;23.314;2023-09-12T04:47:47;19.20;64.00
20911;DHT22;10615;42.702;23.314;2023-09-12T04:48:47;19.30;63.70
20911;DHT22;10615;42.702;23.314;2023-09-12T04:49:48;19.40;63.30
20911;DHT22;10615;42.702;23.314;2023-09-12T04:50:48;19.50;63.00
20911;DHT22;10615;42.702;23.314;2023-09-12T04:51:49;19.60;62.60
20911;DHT22;10615;42.702;23.314;2023-09-12T04:52:50;19.80;62.20
20911;DHT22;10615;42.702;23.314;2023-09-12T04:53:50;19.90;61.70
20911;DHT22;10615;42.702;23.314;2023-09-12T04:54:52;20.00;61.30
20911;DHT22;10615;42.702;23.314;2023-09-12T04:55:53;20.00;60.90
20911;DHT22;10615;42.702;23.314;2023-09-12T04:56:54;20.10;60.70
20911;DHT22;10615;42.702;23.314;2023-09-12T04:57:54;20.10;60.40
20911;DHT22;10615;42.702;23.314;2023-09-12T04:58:55;20.20;60.20
20911;DHT22;10615;42.702;23.314;2023-09-12T04:59:55;20.20;60.10
20911;DHT22;10615;42.702;23.314;2023-09-12T05:00:56;20.20;59.90
20911;DHT22;10615;42.702;23.314;2023-09-12T05:01:57;20.30;59.70
20911;DHT22;10615;42.702;23.314;2023-09-12T05:02:57;20.30;59.70
20911;DHT22;10615;42.702;23.314;2023-09-12T05:03:58;20.30;59.60
20911;DHT22;10615;42.702;23.314;2023-09-12T05:04:59;20.40;59.60
20911;DHT22;10615;42.702;23.314;2023-09-12T05:05:59;20.40;59.50
20911;DHT22;10615;42.702;23.314;2023-09-12T05:07:00;20.50;59.30
20911;DHT22;10615;42.702;23.314;2023-09-12T05:08:00;20.50;59.00
20911;DHT22;10615;42.702;23.314;2023-09-12T05:09:01;20.60;58.80
20911;DHT22;10615;42.702;23.314;2023-09-12T05:10:02;20.60;58.50
20911;DHT22;10615;42.702;23.314;2023-09-12T05:11:04;20.80;58.40
20911;DHT22;10615;42.702;23.314;2023-09-12T05:12:05;20.90;58.00
20911;DHT22;10615;42.702;23.314;2023-09-12T05:13:05;20.90;57.70
20911;DHT22;10615;42.702;23.314;2023-09-12T05:14:06;21.00;57.50
20911;DHT22;10615;42.702;23.314;2023-09-12T05:15:07;21.00;57.20
20911;DHT22;10615;42.702;23.314;2023-09-12T05:16:08;21.10;57.00
20911;DHT22;10615;42.702;23.314;2023-09-12T05:17:08;21.20;56.80
20911;DHT22;10615;42.702;23.314;2023-09-12T05:18:09;21.30;56.70
20911;DHT22;10615;42.702;23.314;2023-09-12T05:19:11;21.40;56.40
20911;DHT22;10615;42.702;23.314;2023-09-12T05:20:11;21.50;56.00
20911;DHT22;10615;42.702;23.314;2023-09-12T05:21:12;21.60;55.60
20911;DHT22;10615;42.702;23.314;2023-09-12T05:22:13;21.60;55.40
20911;DHT22;10615;42.702;23.314;2023-09-12T05:23:13;21.70;54.90
20911;DHT22;10615;42.702;23.314;2023-09-12T05:24:14;21.70;54.90
20911;DHT22;10615;42.702;23.314;2023-09-12T05:25:15;21.70;54.80
20911;DHT22;10615;42.702;23.314;2023-09-12T05:26:15;21.70;54.50
20911;DHT22;10615;42.702;23.314;2023-09-12T05:27:16;21.80;54.40
20911;DHT22;10615;42.702;23.314;2023-09-12T05:28:18;21.90;54.40
20911;DHT22;10615;42.702;23.314;2023-09-12T05:29:18;21.90;54.30
20911;DHT22;10615;42.702;23.314;2023-09-12T05:30:19;22.00;54.30
20911;DHT22;10615;42.702;23.314;2023-09-12T05:31:20;22.10;54.20
20911;DHT22;10615;42.702;23.314;2023-09-12T05:32:20;22.20;53.90
20911;DHT22;10615;42.702;23.314;2023-09-12T05:33:21;22.30;53.70
20911;DHT22;10615;42.702;23.314;2023-09-12T05:34:22;22.40;53.40
20911;DHT22;10615;42.702;23.314;2023-09-12T05:35:22;22.40;53.10
20911;DHT22;10615;42.702;23.314;2023-09-12T05:36:23;22.50;53.00
20911;DHT22;10615;42.702;23.314;2023-09-12T05:37:25;22.60;52.80
20911;DHT22;10615;42.702;23.314;2023-09-12T05:38:25;22.70;52.50
20911;DHT22;10615;42.702;23.314;2023-09-12T05:39:26;22.90;52.20
20911;DHT22;10615;42.702;23.314;2023-09-12T05:40:27;23.00;51.90
20911;DHT22;10615;42.702;23.314;2023-09-12T05:41:27;23.10;51.70
20911;DHT22;10615;42.702;23.314;2023-09-12T05:42:28;23.20;51.60
20911;DHT22;10615;42.702;23.314;2023-09-12T05:43:28;23.30;51.20
20911;DHT22;10615;42.702;23.314;2023-09-12T05:44:29;23.30;50.90
20911;DHT22;10615;42.702;23.314;2023-09-12T05:45:30;23.40;50.80
20911;DHT22;10615;42.702;23.314;2023-09-12T05:46:33;23.50;50.60
20911;DHT22;10615;42.702;23.314;2023-09-12T05:47:33;23.60;50.40
20911;DHT22;10615;42.702;23.314;2023-09-12T05:48:34;23.80;50.40
20911;DHT22;10615;42.702;23.314;2023-09-12T05:49:34;23.90;50.20
20911;DHT22;10615;42.702;23.314;2023-09-12T05:50:36;24.00;50.00
20911;DHT22;10615;42.702;23.314;2023-09-12T05:51:37;24.10;49.80
20911;DHT22;10615;42.702;23.314;2023-09-12T05:52:37;24.20;49.60
20911;DHT22;10615;42.702;23.314;2023-09-12T05:53:38;24.30;49.60
20911;DHT22;10615;42.702;23.314;2023-09-12T05:54:42;24.40;49.50
20911;DHT22;10615;42.702;23.314;2023-09-12T05:55:42;24.50;49.20
20911;DHT22;10615;42.702;23.314;2023-09-12T05:56:43;24.70;49.10
20911;DHT22;10615;42.702;23.314;2023-09-12T05:57:44;24.80;48.70
20911;DHT22;10615;42.702;23.314;2023-09-12T05:58:44;24.90;48.30
20911;DHT22;10615;42.702;23.314;2023-09-12T05:59:45;25.00;47.90
20911;DHT22;10615;42.702;23.314;2023-09-12T06:00:45;25.10;47.80
20911;DHT22;10615;42.702;23.314;2023-09-12T06:01:48;25.20;47.50
20911;DHT22;10615;42.702;23.314;2023-09-12T06:02:49;25.30;47.30
20911;DHT22;10615;42.702;23.314;2023-09-12T06:03:49;25.40;47.00
20911;DHT22;10615;42.702;23.314;2023-09-12T06:04:50;25.30;46.40
20911;DHT22;10615;42.702;23.314;2023-09-12T06:05:51;25.20;46.10
20911;DHT22;10615;42.702;23.314;2023-09-12T06:06:51;25.00;46.20
20911;DHT22;10615;42.702;23.314;2023-09-12T06:07:52;24.80;46.50
20911;DHT22;10615;42.702;23.314;2023-09-12T06:08:53;24.70;47.00
20911;DHT22;10615;42.702;23.314;2023-09-12T06:09:54;24.70;47.10
20911;DHT22;10615;42.702;23.314;2023-09-12T06:10:54;24.60;47.20
20911;DHT22;10615;42.702;23.314;2023-09-12T06:11:55;24.60;47.30
20911;DHT22;10615;42.702;23.314;2023-09-12T06:12:56;24.60;47.50
20911;DHT22;10615;42.702;23.314;2023-09-12T06:13:56;24.70;47.40
20911;DHT22;10615;42.702;23.314;2023-09-12T06:14:57;24.80;47.30
20911;DHT22;10615;42.702;23.314;2023-09-12T06:15:59;24.90;47.20
20911;DHT22;10615;42.702;23.314;2023-09-12T06:17:00;25.00;46.90
20911;DHT22;10615;42.702;23.314;2023-09-12T06:18:00;25.10;46.70
20911;DHT22;10615;42.702;23.314;2023-09-12T06:19:01;25.20;46.50
20911;DHT22;10615;42.702;23.314;2023-09-12T06:20:02;25.30;46.40
20911;DHT22;10615;42.702;23.314;2023-09-12T06:21:06;25.40;46.20
20911;DHT22;10615;42.702;23.314;2023-09-12T06:22:09;25.60;46.10
20911;DHT22;10615;42.702;23.314;2023-09-12T06:23:09;25.70;45.90
20911;DHT22;10615;42.702;23.314;2023-09-12T06:24:12;25.90;45.70
20911;DHT22;10615;42.702;23.314;2023-09-12T06:25:14;26.00;45.30
20911;DHT22;10615;42.702;23.314;2023-09-12T06:26:14;26.00;45.20